sensor_id;sensor_type;location;lat;lon;timestamp;P1;durP1;ratioP1;P2;durP2;ratioP2
19280;SDS011;9774;52.034;5.342;2023-04-15T00:00:36;3.63;;;2.92;;
19280;SDS011;9774;52.034;5.342;2023-04-15T00:03:04;4.70;;;2.70;;
19280;SDS011;9774;52.034;5.342;2023-04-15T00:05:32;3.40;;;2.92;;
19280;SDS011;9774;52.034;5.342;2023-04-15T00:08:00;3.53;;;2.13;;
19280;SDS011;9774;52.034;5.342;2023-04-15T00:10:27;3.72;;;2.60;;
19280;SDS011;9774;52.034;5.342;2023-04-15T00:12:54;3.92;;;2.85;;
19280;SDS011;9774;52.034;5.342;2023-04-15T00:15:23;2.80;;;2.40;;
19280;SDS011;9774;52.034;5.342;2023-04-15T00:17:51;3.10;;;2.45;;
19280;SDS011;9774;52.034;5.342;2023-04-15T00:20:18;5.28;;;2.47;;
19280;SDS011;9774;52.034;5.342;2023-04-15T00:22:46;4.72;;;2.50;;
19280;SDS011;9774;52.034;5.342;2023-04-15T00:25:13;3.55;;;2.60;;
19280;SDS011;9774;52.034;5.342;2023-04-15T00:27:40;3.70;;;2.45;;
19280;SDS011;9774;52.034;5.342;2023-04-15T00:30:08;5.72;;;3.22;;
19280;SDS011;9774;52.034;5.342;2023-04-15T00:32:37;7.65;;;3.25;;
19280;SDS011;9774;52.034;5.342;2023-04-15T00:35:06;5.22;;;3.75;;
19280;SDS011;9774;52.034;5.342;2023-04-15T00:37:34;3.90;;;2.65;;
19280;SDS011;9774;52.034;5.342;2023-04-15T00:40:01;4.03;;;3.08;;
19280;SDS011;9774;52.034;5.342;2023-04-15T00:42:30;5.07;;;2.65;;
19280;SDS011;9774;52.034;5.342;2023-04-15T00:44:58;4.68;;;3.25;;
19280;SDS011;9774;52.034;5.342;2023-04-15T00:47:26;4.55;;;2.88;;
19280;SDS011;9774;52.034;5.342;2023-04-15T00:49:56;5.07;;;2.85;;
19280;SDS011;9774;52.034;5.342;2023-04-15T00:52:24;3.92;;;3.10;;
19280;SDS011;9774;52.034;5.342;2023-04-15T00:54:51;5.28;;;3.13;;
19280;SDS011;9774;52.034;5.342;2023-04-15T00:57:19;5.03;;;3.35;;
19280;SDS011;9774;52.034;5.342;2023-04-15T00:59:47;5.22;;;3.13;;
19280;SDS011;9774;52.034;5.342;2023-04-15T01:02:16;4.90;;;3.33;;
19280;SDS011;9774;52.034;5.342;2023-04-15T01:04:44;6.10;;;3.10;;
19280;SDS011;9774;52.034;5.342;2023-04-15T01:07:13;8.45;;;3.88;;
19280;SDS011;9774;52.034;5.342;2023-04-15T01:09:40;5.30;;;3.42;;
19280;SDS011;9774;52.034;5.342;2023-04-15T01:12:08;7.03;;;4.00;;
19280;SDS011;9774;52.034;5.342;2023-04-15T01:14:38;6.43;;;3.55;;
19280;SDS011;9774;52.034;5.342;2023-04-15T01:17:05;6.28;;;3.90;;
19280;SDS011;9774;52.034;5.342;2023-04-15T01:19:32;4.95;;;3.95;;
19280;SDS011;9774;52.034;5.342;2023-04-15T01:22:01;4.22;;;3.50;;
19280;SDS011;9774;52.034;5.342;2023-04-15T01:24:31;5.68;;;3.92;;
19280;SDS011;9774;52.034;5.342;2023-04-15T01:27:00;6.25;;;4.20;;
19280;SDS011;9774;52.034;5.342;2023-04-15T01:29:29;5.68;;;4.25;;
19280;SDS011;9774;52.034;5.342;2023-04-15T01:31:57;6.88;;;4.57;;
19280;SDS011;9774;52.034;5.342;2023-04-15T01:34:24;6.05;;;3.70;;
19280;SDS011;9774;52.034;5.342;2023-04-15T01:36:51;6.72;;;4.35;;
19280;SDS011;9774;52.034;5.342;2023-04-15T01:39:19;6.30;;;3.63;;
19280;SDS011;9774;52.034;5.342;2023-04-15T01:41:46;7.25;;;4.05;;
19280;SDS011;9774;52.034;5.342;2023-04-15T01:44:15;5.18;;;3.80;;
19280;SDS011;9774;52.034;5.342;2023-04-15T01:46:43;5.38;;;3.55;;
19280;SDS011;9774;52.034;5.342;2023-04-15T01:49:10;4.55;;;3.33;;
19280;SDS011;9774;52.034;5.342;2023-04-15T01:51:37;5.40;;;3.88;;
19280;SDS011;9774;52.034;5.342;2023-04-15T01:54:05;5.78;;;3.80;;
19280;SDS011;9774;52.034;5.342;2023-04-15T01:56:32;6.63;;;4.03;;
19280;SDS011;9774;52.034;5.342;2023-04-15T01:58:59;4.90;;;3.22;;
19280;SDS011;9774;52.034;5.342;2023-04-15T02:01:29;4.93;;;3.38;;
19280;SDS011;9774;52.034;5.342;2023-04-15T02:03:56;4.10;;;3.15;;
19280;SDS011;9774;52.034;5.342;2023-04-15T02:06:23;6.32;;;3.33;;
19280;SDS011;9774;52.034;5.342;2023-04-15T02:08:52;7.25;;;4.38;;
19280;SDS011;9774;52.034;5.342;2023-04-15T02:11:19;4.88;;;3.42;;
19280;SDS011;9774;52.034;5.342;2023-04-15T02:13:47;3.90;;;3.15;;
19280;SDS011;9774;52.034;5.342;2023-04-15T02:16:14;4.00;;;3.28;;
19280;SDS011;9774;52.034;5.342;2023-04-15T02:18:44;5.63;;;4.07;;
19280;SDS011;9774;52.034;5.342;2023-04-15T02:21:12;6.40;;;3.47;;
19280;SDS011;9774;52.034;5.342;2023-04-15T02:23:39;3.67;;;3.28;;
19280;SDS011;9774;52.034;5.342;2023-04-15T02:26:08;5.50;;;3.78;;
19280;SDS011;9774;52.034;5.342;2023-04-15T02:28:35;4.72;;;3.58;;
19280;SDS011;9774;52.034;5.342;2023-04-15T02:31:04;3.70;;;3.35;;
19280;SDS011;9774;52.034;5.342;2023-04-15T02:33:32;5.80;;;4.15;;
19280;SDS011;9774;52.034;5.342;2023-04-15T02:36:01;4.18;;;3.72;;
19280;SDS011;9774;52.034;5.342;2023-04-15T02:38:28;7.05;;;4.03;;
19280;SDS011;9774;52.034;5.342;2023-04-15T02:40:56;5.90;;;3.63;;
19280;SDS011;9774;52.034;5.342;2023-04-15T02:43:23;5.82;;;4.13;;
19280;SDS011;9774;52.034;5.342;2023-04-15T02:45:50;6.75;;;4.40;;
19280;SDS011;9774;52.034;5.342;2023-04-15T02:48:18;4.40;;;3.90;;
19280;SDS011;9774;52.034;5.342;2023-04-15T02:50:48;4.50;;;3.78;;
19280;SDS011;9774;52.034;5.342;2023-04-15T02:53:16;4.30;;;3.78;;
19280;SDS011;9774;52.034;5.342;2023-04-15T02:55:45;7.55;;;3.97;;
19280;SDS011;9774;52.034;5.342;2023-04-15T02:58:12;4.43;;;3.65;;
19280;SDS011;9774;52.034;5.342;2023-04-15T03:00:39;5.35;;;3.90;;
19280;SDS011;9774;52.034;5.342;2023-04-15T03:03:07;5.45;;;3.42;;
19280;SDS011;9774;52.034;5.342;2023-04-15T03:05:34;5.78;;;4.00;;
19280;SDS011;9774;52.034;5.342;2023-04-15T03:08:03;3.75;;;3.42;;
19280;SDS011;9774;52.034;5.342;2023-04-15T03:10:32;3.88;;;3.55;;
19280;SDS011;9774;52.034;5.342;2023-04-15T03:13:00;4.13;;;3.60;;
19280;SDS011;9774;52.034;5.342;2023-04-15T03:15:27;7.18;;;4.10;;
19280;SDS011;9774;52.034;5.342;2023-04-15T03:17:54;5.20;;;4.10;;
19280;SDS011;9774;52.034;5.342;2023-04-15T03:20:22;5.40;;;4.03;;
19280;SDS011;9774;52.034;5.342;2023-04-15T03:22:49;5.50;;;3.97;;
19280;SDS011;9774;52.034;5.342;2023-04-15T03:25:16;5.70;;;3.80;;
19280;SDS011;9774;52.034;5.342;2023-04-15T03:27:45;4.43;;;4.00;;
19280;SDS011;9774;52.034;5.342;2023-04-15T03:30:12;5.15;;;4.07;;
19280;SDS011;9774;52.034;5.342;2023-04-15T03:32:40;6.10;;;4.38;;
19280;SDS011;9774;52.034;5.342;2023-04-15T03:35:07;5.10;;;4.15;;
19280;SDS011;9774;52.034;5.342;2023-04-15T03:37:35;5.47;;;3.85;;
19280;SDS011;9774;52.034;5.342;2023-04-15T03:40:02;7.97;;;4.60;;
19280;SDS011;9774;52.034;5.342;2023-04-15T03:42:30;5.97;;;4.20;;
19280;SDS011;9774;52.034;5.342;2023-04-15T03:44:59;5.95;;;4.43;;
19280;SDS011;9774;52.034;5.342;2023-04-15T03:47:26;5.20;;;3.97;;
19280;SDS011;9774;52.034;5.342;2023-04-15T03:49:53;4.63;;;3.97;;
19280;SDS011;9774;52.034;5.342;2023-04-15T03:52:21;6.95;;;4.32;;
19280;SDS011;9774;52.034;5.342;2023-04-15T03:54:48;4.95;;;4.00;;
19280;SDS011;9774;52.034;5.342;2023-04-15T03:57:15;5.93;;;3.95;;
19280;SDS011;9774;52.034;5.342;2023-04-15T03:59:42;6.10;;;4.25;;
19280;SDS011;9774;52.034;5.342;2023-04-15T04:02:11;5.07;;;3.78;;
19280;SDS011;9774;52.034;5.342;2023-04-15T04:04:38;5.00;;;3.50;;
19280;SDS011;9774;52.034;5.342;2023-04-15T04:07:06;4.35;;;3.88;;
19280;SDS011;9774;52.034;5.342;2023-04-15T04:09:33;6.57;;;4.22;;
19280;SDS011;9774;52.034;5.342;2023-04-15T04:12:03;4.88;;;4.32;;
19280;SDS011;9774;52.034;5.342;2023-04-15T04:14:30;6.43;;;4.50;;
19280;SDS011;9774;52.034;5.342;2023-04-15T04:16:57;7.68;;;4.43;;
19280;SDS011;9774;52.034;5.342;2023-04-15T04:19:26;6.78;;;4.00;;
19280;SDS011;9774;52.034;5.342;2023-04-15T04:21:54;4.90;;;3.70;;
19280;SDS011;9774;52.034;5.342;2023-04-15T04:24:21;5.50;;;4.53;;
19280;SDS011;9774;52.034;5.342;2023-04-15T04:26:48;7.75;;;4.10;;
19280;SDS011;9774;52.034;5.342;2023-04-15T04:29:16;7.40;;;4.32;;
19280;SDS011;9774;52.034;5.342;2023-04-15T04:31:43;6.13;;;4.05;;
19280;SDS011;9774;52.034;5.342;2023-04-15T04:34:12;4.40;;;3.80;;
19280;SDS011;9774;52.034;5.342;2023-04-15T04:36:41;5.38;;;3.83;;
19280;SDS011;9774;52.034;5.342;2023-04-15T04:39:08;7.20;;;4.25;;
19280;SDS011;9774;52.034;5.342;2023-04-15T04:41:35;4.90;;;4.05;;
19280;SDS011;9774;52.034;5.342;2023-04-15T04:44:03;5.65;;;4.53;;
19280;SDS011;9774;52.034;5.342;2023-04-15T04:46:30;6.82;;;4.47;;
19280;SDS011;9774;52.034;5.342;2023-04-15T04:48:57;7.25;;;4.47;;
19280;SDS011;9774;52.034;5.342;2023-04-15T04:51:25;6.07;;;4.80;;
19280;SDS011;9774;52.034;5.342;2023-04-15T04:53:54;5.13;;;3.65;;
19280;SDS011;9774;52.034;5.342;2023-04-15T04:56:21;6.10;;;4.35;;
19280;SDS011;9774;52.034;5.342;2023-04-15T04:58:48;5.97;;;4.30;;
19280;SDS011;9774;52.034;5.342;2023-04-15T05:01:16;5.80;;;4.13;;
19280;SDS011;9774;52.034;5.342;2023-04-15T05:03:43;4.88;;;4.13;;
19280;SDS011;9774;52.034;5.342;2023-04-15T05:06:10;5.85;;;4.00;;
19280;SDS011;9774;52.034;5.342;2023-04-15T05:08:38;5.93;;;4.25;;
19280;SDS011;9774;52.034;5.342;2023-04-15T05:11:07;5.28;;;4.28;;
19280;SDS011;9774;52.034;5.342;2023-04-15T05:13:34;7.13;;;4.65;;
19280;SDS011;9774;52.034;5.342;2023-04-15T05:16:03;5.28;;;4.03;;
19280;SDS011;9774;52.034;5.342;2023-04-15T05:18:30;5.63;;;4.72;;
19280;SDS011;9774;52.034;5.342;2023-04-15T05:20:58;5.43;;;4.00;;
19280;SDS011;9774;52.034;5.342;2023-04-15T05:23:26;6.18;;;4.25;;
19280;SDS011;9774;52.034;5.342;2023-04-15T05:25:53;8.65;;;4.95;;
19280;SDS011;9774;52.034;5.342;2023-04-15T05:28:22;5.32;;;4.20;;
19280;SDS011;9774;52.034;5.342;2023-04-15T05:30:50;9.48;;;4.55;;
19280;SDS011;9774;52.034;5.342;2023-04-15T05:33:17;7.47;;;4.00;;
19280;SDS011;9774;52.034;5.342;2023-04-15T05:35:44;4.65;;;3.72;;
19280;SDS011;9774;52.034;5.342;2023-04-15T05:38:11;5.47;;;4.47;;
19280;SDS011;9774;52.034;5.342;2023-04-15T05:40:39;5.63;;;4.50;;
19280;SDS011;9774;52.034;5.342;2023-04-15T05:43:07;7.22;;;5.07;;
19280;SDS011;9774;52.034;5.342;2023-04-15T05:45:37;8.80;;;4.55;;
19280;SDS011;9774;52.034;5.342;2023-04-15T05:48:05;5.00;;;4.15;;
19280;SDS011;9774;52.034;5.342;2023-04-15T05:50:32;6.60;;;4.70;;
19280;SDS011;9774;52.034;5.342;2023-04-15T05:53:00;5.95;;;4.22;;
19280;SDS011;9774;52.034;5.342;2023-04-15T05:55:27;5.63;;;4.53;;
19280;SDS011;9774;52.034;5.342;2023-04-15T05:57:58;5.28;;;4.05;;
19280;SDS011;9774;52.034;5.342;2023-04-15T06:00:27;4.97;;;4.10;;
19280;SDS011;9774;52.034;5.342;2023-04-15T06:02:56;6.68;;;4.50;;
19280;SDS011;9774;52.034;5.342;2023-04-15T06:05:24;5.32;;;3.88;;
19280;SDS011;9774;52.034;5.342;2023-04-15T06:07:51;5.45;;;4.07;;
19280;SDS011;9774;52.034;5.342;2023-04-15T06:10:19;6.13;;;4.60;;
19280;SDS011;9774;52.034;5.342;2023-04-15T06:12:54;6.45;;;4.45;;
19280;SDS011;9774;52.034;5.342;2023-04-15T06:15:21;6.15;;;4.20;;
19280;SDS011;9774;52.034;5.342;2023-04-15T06:17:49;5.15;;;4.40;;
19280;SDS011;9774;52.034;5.342;2023-04-15T06:20:18;7.30;;;4.10;;
19280;SDS011;9774;52.034;5.342;2023-04-15T06:22:45;6.93;;;4.22;;
19280;SDS011;9774;52.034;5.342;2023-04-15T06:25:12;6.07;;;4.45;;
19280;SDS011;9774;52.034;5.342;2023-04-15T06:27:40;5.40;;;4.28;;
19280;SDS011;9774;52.034;5.342;2023-04-15T06:30:08;5.30;;;4.63;;
19280;SDS011;9774;52.034;5.342;2023-04-15T06:32:36;4.68;;;3.72;;
19280;SDS011;9774;52.034;5.342;2023-04-15T06:35:04;5.57;;;4.13;;
19280;SDS011;9774;52.034;5.342;2023-04-15T06:37:33;5.72;;;4.53;;
19280;SDS011;9774;52.034;5.342;2023-04-15T06:40:01;5.05;;;4.07;;
19280;SDS011;9774;52.034;5.342;2023-04-15T06:42:29;5.03;;;4.32;;
19280;SDS011;9774;52.034;5.342;2023-04-15T06:44:57;5.38;;;4.20;;
19280;SDS011;9774;52.034;5.342;2023-04-15T06:47:24;6.57;;;4.63;;
19280;SDS011;9774;52.034;5.342;2023-04-15T06:49:51;6.43;;;3.75;;
19280;SDS011;9774;52.034;5.342;2023-04-15T06:52:19;7.25;;;5.20;;
19280;SDS011;9774;52.034;5.342;2023-04-15T06:54:48;6.47;;;4.20;;
19280;SDS011;9774;52.034;5.342;2023-04-15T06:57:16;5.70;;;4.82;;
19280;SDS011;9774;52.034;5.342;2023-04-15T06:59:44;6.47;;;4.55;;
19280;SDS011;9774;52.034;5.342;2023-04-15T07:02:12;7.65;;;4.63;;
19280;SDS011;9774;52.034;5.342;2023-04-15T07:04:39;5.03;;;4.35;;
19280;SDS011;9774;52.034;5.342;2023-04-15T07:07:07;4.85;;;3.80;;
19280;SDS011;9774;52.034;5.342;2023-04-15T07:09:34;8.45;;;4.72;;
19280;SDS011;9774;52.034;5.342;2023-04-15T07:12:03;6.10;;;5.45;;
19280;SDS011;9774;52.034;5.342;2023-04-15T07:14:31;7.03;;;4.55;;
19280;SDS011;9774;52.034;5.342;2023-04-15T07:16:58;6.18;;;4.50;;
19280;SDS011;9774;52.034;5.342;2023-04-15T07:19:26;5.68;;;4.50;;
19280;SDS011;9774;52.034;5.342;2023-04-15T07:21:54;5.60;;;5.00;;
19280;SDS011;9774;52.034;5.342;2023-04-15T07:24:21;5.65;;;4.15;;
19280;SDS011;9774;52.034;5.342;2023-04-15T07:26:50;6.45;;;4.63;;
19280;SDS011;9774;52.034;5.342;2023-04-15T07:29:20;7.10;;;4.85;;
19280;SDS011;9774;52.034;5.342;2023-04-15T07:31:47;9.57;;;4.63;;
19280;SDS011;9774;52.034;5.342;2023-04-15T07:34:14;4.97;;;4.40;;
19280;SDS011;9774;52.034;5.342;2023-04-15T07:36:42;6.47;;;5.10;;
19280;SDS011;9774;52.034;5.342;2023-04-15T07:39:10;7.50;;;4.93;;
19280;SDS011;9774;52.034;5.342;2023-04-15T07:41:37;6.50;;;4.68;;
19280;SDS011;9774;52.034;5.342;2023-04-15T07:44:04;7.20;;;4.65;;
19280;SDS011;9774;52.034;5.342;2023-04-15T07:46:33;5.22;;;4.53;;
19280;SDS011;9774;52.034;5.342;2023-04-15T07:49:01;5.95;;;4.57;;
19280;SDS011;9774;52.034;5.342;2023-04-15T07:51:28;4.45;;;3.83;;
19280;SDS011;9774;52.034;5.342;2023-04-15T07:53:56;7.07;;;4.80;;
19280;SDS011;9774;52.034;5.342;2023-04-15T07:56:24;5.57;;;4.38;;
19280;SDS011;9774;52.034;5.342;2023-04-15T07:58:51;5.75;;;4.60;;
19280;SDS011;9774;52.034;5.342;2023-04-15T08:01:19;6.03;;;4.55;;
19280;SDS011;9774;52.034;5.342;2023-04-15T08:03:48;6.18;;;4.55;;
19280;SDS011;9774;52.034;5.342;2023-04-15T08:06:16;5.35;;;4.40;;
19280;SDS011;9774;52.034;5.342;2023-04-15T08:08:43;6.38;;;5.10;;
19280;SDS011;9774;52.034;5.342;2023-04-15T08:11:11;5.68;;;4.65;;
19280;SDS011;9774;52.034;5.342;2023-04-15T08:13:38;5.47;;;4.47;;
19280;SDS011;9774;52.034;5.342;2023-04-15T08:16:13;8.07;;;4.30;;
19280;SDS011;9774;52.034;5.342;2023-04-15T08:18:44;4.32;;;3.55;;
19280;SDS011;9774;52.034;5.342;2023-04-15T08:21:13;4.55;;;3.58;;
19280;SDS011;9774;52.034;5.342;2023-04-15T08:23:42;7.43;;;3.80;;
19280;SDS011;9774;52.034;5.342;2023-04-15T08:26:10;7.47;;;3.63;;
19280;SDS011;9774;52.034;5.342;2023-04-15T08:28:38;4.75;;;3.70;;
19280;SDS011;9774;52.034;5.342;2023-04-15T08:31:06;4.68;;;3.75;;
19280;SDS011;9774;52.034;5.342;2023-04-15T08:33:34;4.03;;;3.60;;
19280;SDS011;9774;52.034;5.342;2023-04-15T08:36:01;3.72;;;2.92;;
19280;SDS011;9774;52.034;5.342;2023-04-15T08:38:31;3.97;;;3.00;;
19280;SDS011;9774;52.034;5.342;2023-04-15T08:40:59;3.38;;;2.75;;
19280;SDS011;9774;52.034;5.342;2023-04-15T08:43:34;3.50;;;2.90;;
19280;SDS011;9774;52.034;5.342;2023-04-15T08:46:07;3.05;;;2.75;;
19280;SDS011;9774;52.034;5.342;2023-04-15T08:48:36;3.88;;;2.80;;
19280;SDS011;9774;52.034;5.342;2023-04-15T08:51:05;2.95;;;2.17;;
19280;SDS011;9774;52.034;5.342;2023-04-15T08:53:34;2.20;;;1.85;;
19280;SDS011;9774;52.034;5.342;2023-04-15T08:56:03;3.42;;;2.17;;
19280;SDS011;9774;52.034;5.342;2023-04-15T08:58:34;2.17;;;1.83;;
19280;SDS011;9774;52.034;5.342;2023-04-15T09:01:02;4.43;;;2.40;;
19280;SDS011;9774;52.034;5.342;2023-04-15T09:03:29;6.50;;;2.33;;
19280;SDS011;9774;52.034;5.342;2023-04-15T09:05:58;3.60;;;1.85;;
19280;SDS011;9774;52.034;5.342;2023-04-15T09:08:25;2.40;;;1.63;;
19280;SDS011;9774;52.034;5.342;2023-04-15T09:10:54;2.70;;;1.90;;
19280;SDS011;9774;52.034;5.342;2023-04-15T09:13:21;1.75;;;1.50;;
19280;SDS011;9774;52.034;5.342;2023-04-15T09:15:49;2.42;;;1.95;;
19280;SDS011;9774;52.034;5.342;2023-04-15T09:18:26;2.97;;;2.00;;
19280;SDS011;9774;52.034;5.342;2023-04-15T09:20:54;2.85;;;2.22;;
19280;SDS011;9774;52.034;5.342;2023-04-15T09:23:23;2.10;;;1.90;;
19280;SDS011;9774;52.034;5.342;2023-04-15T09:25:51;3.03;;;2.38;;
19280;SDS011;9774;52.034;5.342;2023-04-15T09:28:24;3.25;;;2.53;;
19280;SDS011;9774;52.034;5.342;2023-04-15T09:30:54;2.75;;;2.47;;
19280;SDS011;9774;52.034;5.342;2023-04-15T09:33:22;3.75;;;2.35;;
19280;SDS011;9774;52.034;5.342;2023-04-15T09:35:57;3.42;;;2.38;;
19280;SDS011;9774;52.034;5.342;2023-04-15T09:38:26;3.10;;;2.17;;
19280;SDS011;9774;52.034;5.342;2023-04-15T09:40:53;4.05;;;2.50;;
19280;SDS011;9774;52.034;5.342;2023-04-15T09:43:25;2.00;;;1.63;;
19280;SDS011;9774;52.034;5.342;2023-04-15T09:46:04;3.33;;;2.40;;
19280;SDS011;9774;52.034;5.342;2023-04-15T09:48:31;3.28;;;1.80;;
19280;SDS011;9774;52.034;5.342;2023-04-15T09:50:59;2.25;;;1.90;;
19280;SDS011;9774;52.034;5.342;2023-04-15T09:53:26;2.30;;;1.67;;
19280;SDS011;9774;52.034;5.342;2023-04-15T09:55:55;1.70;;;1.55;;
19280;SDS011;9774;52.034;5.342;2023-04-15T09:58:26;3.80;;;1.60;;
19280;SDS011;9774;52.034;5.342;2023-04-15T10:00:55;1.70;;;1.50;;
19280;SDS011;9774;52.034;5.342;2023-04-15T10:03:23;2.72;;;1.80;;
19280;SDS011;9774;52.034;5.342;2023-04-15T10:05:52;2.90;;;1.85;;
19280;SDS011;9774;52.034;5.342;2023-04-15T10:08:21;1.58;;;1.40;;
19280;SDS011;9774;52.034;5.342;2023-04-15T10:10:50;2.60;;;2.00;;
19280;SDS011;9774;52.034;5.342;2023-04-15T10:13:20;2.78;;;1.95;;
19280;SDS011;9774;52.034;5.342;2023-04-15T10:15:51;2.35;;;1.70;;
19280;SDS011;9774;52.034;5.342;2023-04-15T10:18:24;2.22;;;1.65;;
19280;SDS011;9774;52.034;5.342;2023-04-15T10:20:52;3.42;;;2.13;;
19280;SDS011;9774;52.034;5.342;2023-04-15T10:23:21;3.83;;;1.85;;
19280;SDS011;9774;52.034;5.342;2023-04-15T10:25:50;3.10;;;1.95;;
19280;SDS011;9774;52.034;5.342;2023-04-15T10:28:19;3.65;;;1.92;;
19280;SDS011;9774;52.034;5.342;2023-04-15T10:30:47;2.97;;;2.03;;
19280;SDS011;9774;52.034;5.342;2023-04-15T10:33:18;3.38;;;2.15;;
19280;SDS011;9774;52.034;5.342;2023-04-15T10:35:47;3.88;;;2.03;;
19280;SDS011;9774;52.034;5.342;2023-04-15T10:38:34;2.78;;;1.77;;
19280;SDS011;9774;52.034;5.342;2023-04-15T10:41:12;3.15;;;1.65;;
19280;SDS011;9774;52.034;5.342;2023-04-15T10:43:51;1.63;;;1.52;;
19280;SDS011;9774;52.034;5.342;2023-04-15T10:46:22;1.77;;;1.25;;
19280;SDS011;9774;52.034;5.342;2023-04-15T10:49:05;2.00;;;1.50;;
19280;SDS011;9774;52.034;5.342;2023-04-15T10:51:36;3.03;;;1.73;;
19280;SDS011;9774;52.034;5.342;2023-04-15T10:54:07;2.97;;;1.42;;
19280;SDS011;9774;52.034;5.342;2023-04-15T10:56:40;2.22;;;1.67;;
19280;SDS011;9774;52.034;5.342;2023-04-15T10:59:08;1.58;;;1.35;;
19280;SDS011;9774;52.034;5.342;2023-04-15T11:01:52;1.73;;;1.50;;
19280;SDS011;9774;52.034;5.342;2023-04-15T11:07:37;2.58;;;0.98;;
19280;SDS011;9774;52.034;5.342;2023-04-15T11:13:20;2.45;;;1.50;;
19280;SDS011;9774;52.034;5.342;2023-04-15T11:15:50;1.35;;;1.10;;
19280;SDS011;9774;52.034;5.342;2023-04-15T11:18:22;1.92;;;1.38;;
19280;SDS011;9774;52.034;5.342;2023-04-15T11:20:54;2.10;;;1.48;;
19280;SDS011;9774;52.034;5.342;2023-04-15T11:23:27;1.45;;;1.30;;
19280;SDS011;9774;52.034;5.342;2023-04-15T11:25:56;2.08;;;1.63;;
19280;SDS011;9774;52.034;5.342;2023-04-15T11:28:25;2.10;;;1.58;;
19280;SDS011;9774;52.034;5.342;2023-04-15T11:31:06;1.70;;;1.48;;
19280;SDS011;9774;52.034;5.342;2023-04-15T11:33:35;1.42;;;1.20;;
19280;SDS011;9774;52.034;5.342;2023-04-15T11:36:03;1.83;;;1.05;;
19280;SDS011;9774;52.034;5.342;2023-04-15T11:38:31;1.95;;;1.42;;
19280;SDS011;9774;52.034;5.342;2023-04-15T11:41:02;2.67;;;1.60;;
19280;SDS011;9774;52.034;5.342;2023-04-15T11:43:30;1.52;;;1.30;;
19280;SDS011;9774;52.034;5.342;2023-04-15T11:46:00;3.72;;;1.05;;
19280;SDS011;9774;52.034;5.342;2023-04-15T11:48:30;1.45;;;1.30;;
19280;SDS011;9774;52.034;5.342;2023-04-15T11:50:59;1.60;;;1.35;;
19280;SDS011;9774;52.034;5.342;2023-04-15T11:53:34;2.15;;;1.30;;
19280;SDS011;9774;52.034;5.342;2023-04-15T11:56:03;1.35;;;1.25;;
19280;SDS011;9774;52.034;5.342;2023-04-15T11:58:33;1.80;;;1.45;;
19280;SDS011;9774;52.034;5.342;2023-04-15T12:01:02;1.80;;;1.45;;
19280;SDS011;9774;52.034;5.342;2023-04-15T12:03:35;1.50;;;1.05;;
19280;SDS011;9774;52.034;5.342;2023-04-15T12:06:14;2.83;;;1.40;;
19280;SDS011;9774;52.034;5.342;2023-04-15T12:08:56;2.08;;;1.30;;
19280;SDS011;9774;52.034;5.342;2023-04-15T12:11:29;2.65;;;1.33;;
19280;SDS011;9774;52.034;5.342;2023-04-15T12:14:01;1.20;;;1.10;;
19280;SDS011;9774;52.034;5.342;2023-04-15T12:16:30;2.75;;;1.48;;
19280;SDS011;9774;52.034;5.342;2023-04-15T12:19:01;2.63;;;1.15;;
19280;SDS011;9774;52.034;5.342;2023-04-15T12:21:35;3.08;;;1.13;;
19280;SDS011;9774;52.034;5.342;2023-04-15T12:24:04;4.07;;;1.48;;
19280;SDS011;9774;52.034;5.342;2023-04-15T12:26:33;2.95;;;1.70;;
19280;SDS011;9774;52.034;5.342;2023-04-15T12:29:02;2.13;;;1.50;;
19280;SDS011;9774;52.034;5.342;2023-04-15T12:31:33;1.23;;;1.00;;
19280;SDS011;9774;52.034;5.342;2023-04-15T12:34:03;7.65;;;1.50;;
19280;SDS011;9774;52.034;5.342;2023-04-15T12:36:33;2.58;;;1.30;;
19280;SDS011;9774;52.034;5.342;2023-04-15T12:39:01;1.88;;;0.98;;
19280;SDS011;9774;52.034;5.342;2023-04-15T12:41:30;1.30;;;1.00;;
19280;SDS011;9774;52.034;5.342;2023-04-15T12:43:57;1.55;;;0.73;;
19280;SDS011;9774;52.034;5.342;2023-04-15T12:46:25;1.10;;;0.90;;
19280;SDS011;9774;52.034;5.342;2023-04-15T12:48:53;1.58;;;1.17;;
19280;SDS011;9774;52.034;5.342;2023-04-15T12:51:22;1.95;;;0.95;;
19280;SDS011;9774;52.034;5.342;2023-04-15T12:53:51;0.90;;;0.85;;
19280;SDS011;9774;52.034;5.342;2023-04-15T12:56:18;1.23;;;0.77;;
19280;SDS011;9774;52.034;5.342;2023-04-15T12:58:46;1.17;;;0.98;;
19280;SDS011;9774;52.034;5.342;2023-04-15T13:01:13;3.17;;;0.80;;
19280;SDS011;9774;52.034;5.342;2023-04-15T13:03:41;1.20;;;0.60;;
19280;SDS011;9774;52.034;5.342;2023-04-15T13:06:08;1.70;;;0.80;;
19280;SDS011;9774;52.034;5.342;2023-04-15T13:08:37;1.42;;;0.90;;
19280;SDS011;9774;52.034;5.342;2023-04-15T13:11:04;1.42;;;0.90;;
19280;SDS011;9774;52.034;5.342;2023-04-15T13:13:33;2.15;;;0.88;;
19280;SDS011;9774;52.034;5.342;2023-04-15T13:16:00;1.02;;;0.80;;
19280;SDS011;9774;52.034;5.342;2023-04-15T13:18:27;1.60;;;0.90;;
19280;SDS011;9774;52.034;5.342;2023-04-15T13:20:55;1.42;;;0.90;;
19280;SDS011;9774;52.034;5.342;2023-04-15T13:23:23;1.58;;;0.90;;
19280;SDS011;9774;52.034;5.342;2023-04-15T13:25:51;0.75;;;0.63;;
19280;SDS011;9774;52.034;5.342;2023-04-15T13:28:19;1.73;;;0.80;;
19280;SDS011;9774;52.034;5.342;2023-04-15T13:30:47;1.38;;;0.75;;
19280;SDS011;9774;52.034;5.342;2023-04-15T13:33:15;1.70;;;0.77;;
19280;SDS011;9774;52.034;5.342;2023-04-15T13:35:42;1.38;;;0.90;;
19280;SDS011;9774;52.034;5.342;2023-04-15T13:38:10;2.63;;;0.95;;
19280;SDS011;9774;52.034;5.342;2023-04-15T13:40:37;2.90;;;0.68;;
19280;SDS011;9774;52.034;5.342;2023-04-15T13:43:06;0.90;;;0.45;;
19280;SDS011;9774;52.034;5.342;2023-04-15T13:45:33;1.00;;;0.60;;
19280;SDS011;9774;52.034;5.342;2023-04-15T13:48:00;1.50;;;0.77;;
19280;SDS011;9774;52.034;5.342;2023-04-15T13:50:28;1.05;;;0.70;;
19280;SDS011;9774;52.034;5.342;2023-04-15T13:52:55;1.45;;;0.52;;
19280;SDS011;9774;52.034;5.342;2023-04-15T13:55:23;2.33;;;1.23;;
19280;SDS011;9774;52.034;5.342;2023-04-15T13:57:50;1.73;;;0.88;;
19280;SDS011;9774;52.034;5.342;2023-04-15T14:00:19;2.42;;;1.00;;
19280;SDS011;9774;52.034;5.342;2023-04-15T14:02:46;1.92;;;1.00;;
19280;SDS011;9774;52.034;5.342;2023-04-15T14:05:14;3.97;;;0.70;;
19280;SDS011;9774;52.034;5.342;2023-04-15T14:07:41;0.90;;;0.70;;
19280;SDS011;9774;52.034;5.342;2023-04-15T14:10:08;1.48;;;0.65;;
19280;SDS011;9774;52.034;5.342;2023-04-15T14:12:36;1.08;;;0.60;;
19280;SDS011;9774;52.034;5.342;2023-04-15T14:15:04;1.20;;;0.50;;
19280;SDS011;9774;52.034;5.342;2023-04-15T14:17:33;0.82;;;0.60;;
19280;SDS011;9774;52.034;5.342;2023-04-15T14:20:00;1.10;;;0.60;;
19280;SDS011;9774;52.034;5.342;2023-04-15T14:22:28;0.73;;;0.30;;
19280;SDS011;9774;52.034;5.342;2023-04-15T14:24:55;2.40;;;0.70;;
19280;SDS011;9774;52.034;5.342;2023-04-15T14:27:22;1.55;;;0.85;;
19280;SDS011;9774;52.034;5.342;2023-04-15T14:29:50;1.45;;;0.68;;
19280;SDS011;9774;52.034;5.342;2023-04-15T14:32:18;0.65;;;0.40;;
19280;SDS011;9774;52.034;5.342;2023-04-15T14:34:47;1.02;;;0.63;;
19280;SDS011;9774;52.034;5.342;2023-04-15T14:37:14;1.83;;;0.80;;
19280;SDS011;9774;52.034;5.342;2023-04-15T14:39:41;1.00;;;0.65;;
19280;SDS011;9774;52.034;5.342;2023-04-15T14:42:08;3.30;;;0.70;;
19280;SDS011;9774;52.034;5.342;2023-04-15T14:44:36;1.83;;;0.90;;
19280;SDS011;9774;52.034;5.342;2023-04-15T14:47:03;0.93;;;0.63;;
19280;SDS011;9774;52.034;5.342;2023-04-15T14:49:31;1.77;;;0.80;;
19280;SDS011;9774;52.034;5.342;2023-04-15T14:51:59;1.30;;;0.57;;
19280;SDS011;9774;52.034;5.342;2023-04-15T14:54:27;1.77;;;0.80;;
19280;SDS011;9774;52.034;5.342;2023-04-15T14:56:54;3.55;;;0.70;;
19280;SDS011;9774;52.034;5.342;2023-04-15T14:59:22;0.68;;;0.40;;
19280;SDS011;9774;52.034;5.342;2023-04-15T15:01:49;0.88;;;0.38;;
19280;SDS011;9774;52.034;5.342;2023-04-15T15:04:17;2.50;;;0.60;;
19280;SDS011;9774;52.034;5.342;2023-04-15T15:06:45;1.52;;;0.88;;
19280;SDS011;9774;52.034;5.342;2023-04-15T15:09:14;3.40;;;0.60;;
19280;SDS011;9774;52.034;5.342;2023-04-15T15:11:41;2.88;;;0.85;;
19280;SDS011;9774;52.034;5.342;2023-04-15T15:14:08;3.38;;;0.50;;